Latest Weather Observations for Barimunya

IDW60801

Issued at 4:35 pm WST Wednesday 20 August 2014 (issued every 30 minutes, with the page automatically refreshed every 10 minutes)

About weather observations | Map of weather stations | Latest weather observations for WA | Other Formats
Station Details ID: 505053 Name: BARIMUNYA Lat: -22.67 Lon: 119.16 Height: 629.17 m
Data from the previous 72 hours. | See also: Recent months for locations in Western Australia
Date/Time
WST
Temp
°C
App
Temp
°C
Dew
Point
Rel
Hum
%
Delta-T
°C
Wind Press
QNH
hPa
Press
MSL
hPa
Rain
since 9 am
mm
Dir
 
Spd
km/h
Gust
km/h
Spd
kts
Gust
kts
20/04:30pm 25.3 19.9 -1.5 17 12.4 NNW 17 24 9 13 1016.3 1014.5 -
20/04:00pm 25.2 20.6 -0.8 18 12.2 N 13 30 7 16 1016.1 1014.3 -
20/03:30pm 24.8 18.9 -1.9 17 12.2 WNW 19 20 10 11 1016.3 1014.5 -
20/03:00pm 25.6 21.1 -0.5 18 12.3 NNW 13 20 7 11 1016.5 1014.7 -
20/02:30pm 25.3 19.5 0.0 19 12.0 N 20 28 11 15 1016.6 1014.8 -
20/02:00pm 24.2 20.1 -0.2 20 11.5 NE 11 20 6 11 1016.8 1015.0 -
20/01:30pm 24.8 21.5 0.3 20 11.7 N 7 17 4 9 1017.1 1015.3 -
20/01:00pm 24.2 20.2 0.5 21 11.3 ENE 11 19 6 10 1017.6 1015.8 -
20/12:30pm 23.5 17.7 -0.1 21 11.0 NNE 20 32 11 17 1018.2 1016.4 -
20/12:00pm 23.0 19.9 1.4 24 10.4 SSE 7 13 4 7 1018.8 1017.1 -
20/11:30am 22.1 18.7 1.7 26 9.8 NNE 9 15 5 8 1019.4 1017.6 0.0
20/11:00am 22.2 19.0 2.8 28 9.5 ESE 9 19 5 10 1019.8 1018.0 0.0
20/10:30am 20.8 17.4 2.1 29 9.0 S 9 17 5 9 1020.2 1018.5 0.0
20/10:00am 20.2 15.7 2.1 30 8.6 SSE 15 20 8 11 1020.4 1018.7 0.0
20/09:30am 19.3 - 2.2 32 8.1 - - - - - 1020.5 1018.8 0.0
20/09:00am 18.5 14.0 2.4 34 7.6 S 15 20 8 11 1020.6 1018.9 0.0
20/08:30am 17.6 13.5 2.0 35 7.3 S 13 19 7 10 1020.4 - 0.0
20/08:00am 16.6 13.2 1.9 37 6.8 S 9 13 5 7 1020.1 1018.3 0.0
20/07:30am 13.7 12.1 2.6 47 5.1 CALM 0 0 0 0 1019.8 - 0.0
20/07:00am 10.8 9.1 2.1 55 3.8 CALM 0 0 0 0 1019.5 1017.7 0.0
20/06:30am 9.2 7.5 1.9 60 3.2 CALM 0 0 0 0 1019.3 - 0.0
20/06:00am 9.4 6.9 1.3 57 3.5 SSW 4 7 2 4 1018.9 1017.2 0.0
20/05:30am 11.8 10.2 2.5 53 4.2 CALM 0 0 0 0 1018.7 - 0.0
20/05:00am 11.2 8.3 1.7 52 4.2 SSW 6 7 3 4 1018.4 1016.6 0.0
20/04:30am 10.1 7.5 1.0 53 3.9 SSW 4 9 2 5 1018.3 - 0.0
20/04:00am 11.0 9.2 1.5 52 4.1 CALM 0 0 0 0 1018.2 1016.4 0.0
20/03:30am 11.9 9.0 1.5 49 4.6 SSW 6 9 3 5 1018.3 - 0.0
20/03:00am 13.1 9.3 1.8 46 5.1 SSW 11 13 6 7 1018.3 1016.5 0.0
20/02:30am 11.8 10.1 2.0 51 4.4 CALM 0 0 0 0 1018.3 - 0.0
20/02:00am 14.0 10.0 2.6 46 5.2 SSW 13 15 7 8 1018.3 1016.5 0.0
20/01:30am 12.1 10.3 1.1 47 4.8 CALM 0 7 0 4 1018.5 - 0.0
20/01:00am 11.7 8.5 0.8 47 4.7 SSW 7 11 4 6 1018.6 1016.8 0.0
20/12:30am 12.5 10.6 0.3 43 5.3 CALM 0 0 0 0 1018.5 - 0.0
20/12:00am 12.7 10.3 -0.5 40 5.6 SSW 2 6 1 3 1018.7 1016.9 0.0
 
Date/Time
WST
Temp
°C
App
Temp
°C
Dew
Point
Rel
Hum
%
Delta-T
°C
Wind Press
QNH
hPa
Press
MSL
hPa
Rain
since 9 am
mm
Dir
 
Spd
km/h
Gust
km/h
Spd
kts
Gust
kts
19/11:30pm 14.3 12.3 0.2 38 6.2 CALM 0 0 0 0 1019.1 - 0.0
19/11:00pm 15.0 12.9 -0.7 34 6.8 CALM 0 0 0 0 1019.3 1017.5 0.0
19/10:30pm 15.1 12.9 -1.9 31 7.2 CALM 0 0 0 0 1019.4 - 0.0
19/10:00pm 14.9 12.6 -2.5 30 7.2 CALM 0 0 0 0 1019.5 1017.7 0.0
19/09:30pm 17.5 13.5 -2.2 26 8.4 WSW 9 13 5 7 1019.6 - 0.0
19/09:00pm 16.3 12.8 -3.2 26 8.1 NNW 6 9 3 5 1019.5 1017.7 0.0
19/08:30pm 16.5 12.8 -2.5 27 8.0 W 7 11 4 6 1019.4 - 0.0
19/08:00pm 18.7 16.2 -4.0 21 9.4 CALM 0 0 0 0 1018.8 1017.1 0.0
19/07:30pm 18.4 14.6 -3.7 22 9.2 N 7 7 4 4 1018.5 - 0.0
19/07:00pm 19.1 15.3 -3.7 21 9.6 NNE 7 9 4 5 1018.2 1016.4 0.0
19/06:30pm 20.4 16.2 -4.0 19 10.3 NNE 9 11 5 6 1018.0 - 0.0
19/06:00pm 21.7 17.4 -4.4 17 11.1 N 9 11 5 6 1017.7 1015.9 0.0
19/05:30pm 24.3 20.0 -4.9 14 12.6 NW 9 13 5 7 1017.6 - 0.0
19/05:00pm 24.9 19.8 -5.4 13 13.0 NW 13 19 7 10 1017.6 1015.8 0.0
19/04:30pm 25.3 20.6 -5.1 13 13.2 N 11 20 6 11 1017.5 - 0.0
19/04:00pm 25.1 19.6 -5.2 13 13.1 W 15 28 8 15 1017.6 1015.8 0.0
19/03:30pm 25.1 20.0 -5.2 13 13.1 NW 13 24 7 13 1017.6 - 0.0
19/03:00pm 25.1 20.8 -5.2 13 13.1 NNW 9 13 5 7 1017.9 1016.1 0.0
19/02:30pm 24.8 18.6 -4.5 14 12.8 W 19 26 10 14 1018.1 - 0.0
19/02:00pm 24.4 19.7 -4.8 14 12.6 NNW 11 24 6 13 1018.3 1016.5 0.0
19/01:30pm 25.2 19.8 -4.2 14 12.9 W 15 22 8 12 1018.7 - 0.0
19/01:00pm 24.0 19.8 -4.2 15 12.3 NNW 9 19 5 10 1018.9 1017.2 0.0
19/12:30pm 23.6 18.3 -3.7 16 12.0 NNW 15 20 8 11 1019.5 - 0.0
19/12:00pm 23.0 18.8 -4.1 16 11.7 N 9 17 5 9 1020.0 1018.2 0.0
19/11:30am 23.4 17.7 -3.8 16 11.9 N 17 24 9 13 1020.4 - 0.0
19/11:00am 23.2 18.2 -4.0 16 11.8 N 13 20 7 11 1020.6 1018.9 0.0
19/10:30am 21.9 17.7 -4.2 17 11.2 N 9 15 5 8 1021.2 - 0.0
19/10:00am 20.9 16.7 -3.6 19 10.5 W 9 17 5 9 1021.5 1019.7 0.0
19/09:30am 19.9 17.1 -3.0 21 9.9 W 2 7 1 4 1021.8 - 0.0
19/09:00am 17.8 15.0 -3.0 24 8.7 W 2 7 1 4 1021.8 1020.1 0.0
19/08:30am 15.9 13.5 -3.1 27 7.9 CALM 0 0 0 0 1022.0 - 0.0
19/08:00am 14.0 10.6 -2.4 32 6.7 SW 6 9 3 5 1021.8 1020.1 0.0
19/07:30am 12.1 8.8 -1.4 39 5.6 W 6 7 3 4 1021.5 - 0.0
19/07:00am 7.8 5.6 -1.4 52 3.6 CALM 0 0 0 0 1021.2 1019.4 0.0
19/06:30am 8.3 6.0 -2.0 48 4.0 CALM 0 0 0 0 1020.9 - 0.0
19/06:00am 7.4 5.2 -1.8 52 3.6 CALM 0 0 0 0 1020.5 1018.8 0.0
19/05:30am 8.8 6.1 -2.2 46 4.3 W 2 6 1 3 1020.3 - 0.0
19/05:00am 8.5 4.5 -1.9 48 4.1 W 9 11 5 6 1020.0 1018.2 0.0
19/04:30am 7.8 5.1 -2.5 48 4.0 WNW 2 6 1 3 1019.7 - 0.0
19/04:00am 8.8 6.4 -3.1 43 4.6 CALM 0 0 0 0 1019.8 1018.0 0.0
19/03:30am 9.8 6.8 -2.2 43 4.8 WNW 4 7 2 4 1019.8 - 0.0
19/03:00am 8.7 6.4 -2.6 45 4.4 CALM 0 0 0 0 1020.1 1018.3 0.0
19/02:30am 10.7 8.4 -2.7 39 5.3 CALM 0 0 0 0 1020.2 - 0.0
19/02:00am 9.7 7.3 -2.9 41 4.9 CALM 0 0 0 0 1020.4 1018.7 0.0
19/01:30am 10.0 7.7 -2.3 42 4.9 CALM 0 0 0 0 1020.6 - 0.0
19/01:00am 10.3 8.0 -2.4 41 5.0 CALM 0 0 0 0 1020.9 1019.1 0.0
19/12:30am 10.2 7.9 -2.4 41 5.0 CALM 0 0 0 0 1021.0 - 0.0
19/12:00am 10.7 7.9 -3.0 38 5.4 WNW 2 6 1 3 1021.3 1019.5 0.0
 
Date/Time
WST
Temp
°C
App
Temp
°C
Dew
Point
Rel
Hum
%
Delta-T
°C
Wind Press
QNH
hPa
Press
MSL
hPa
Rain
since 9 am
mm
Dir
 
Spd
km/h
Gust
km/h
Spd
kts
Gust
kts
18/11:30pm 10.8 8.6 -1.9 41 5.1 CALM 0 0 0 0 1021.5 - 0.0
18/11:00pm 11.8 8.4 -1.7 39 5.5 NW 6 9 3 5 1021.7 1020.0 0.0
18/10:30pm 12.3 10.0 -2.3 36 5.9 CALM 0 7 0 4 1021.8 - 0.0
18/10:00pm 14.3 12.0 -2.2 32 6.8 CALM 0 0 0 0 1021.5 1019.7 0.0
18/09:30pm 15.1 12.7 -2.8 29 7.4 CALM 0 0 0 0 1021.3 - 0.0
18/09:00pm 14.3 11.9 -3.0 30 7.0 CALM 0 0 0 0 1021.3 1019.5 0.0
18/08:30pm 15.3 12.8 -4.1 26 7.8 CALM 0 0 0 0 1021.1 - 0.0
18/08:00pm 16.2 12.5 -3.3 26 8.0 E 7 7 4 4 1020.9 1019.1 0.0
18/07:30pm 17.1 13.3 -3.6 24 8.6 E 7 9 4 5 1020.5 - 0.0
18/07:00pm 17.1 14.7 -3.1 25 8.4 CALM 0 6 0 3 1020.1 1018.3 0.0
18/06:30pm 18.5 14.7 -3.6 22 9.3 ENE 7 9 4 5 1019.8 - 0.0
18/06:00pm 20.2 16.0 -4.1 19 10.2 E 9 11 5 6 1019.6 1017.8 0.0
18/05:30pm 22.2 18.4 -4.0 17 11.3 E 7 11 4 6 1019.5 - 0.0
18/05:00pm 22.9 19.2 -4.2 16 11.7 SSE 6 11 3 6 1019.3 1017.5 0.0
18/04:30pm 22.9 18.2 -5.1 15 11.9 S 11 20 6 11 1019.1 - 0.0
18/04:00pm 23.1 19.7 -4.9 15 11.9 ESE 4 9 2 5 1018.9 1017.2 0.0
18/03:30pm 22.8 18.5 -5.2 15 11.8 SE 9 17 5 9 1019.1 - 0.0
18/03:00pm 23.1 18.5 -4.1 16 11.8 S 11 19 6 10 1019.2 1017.4 0.0
18/02:30pm 22.9 17.5 -4.2 16 11.7 SSE 15 24 8 13 1019.5 - 0.0
18/02:00pm 23.1 17.7 -4.1 16 11.8 SE 15 44 8 24 1019.3 1017.5 0.0
18/01:30pm 21.9 17.2 -5.0 16 11.3 SSE 11 20 6 11 1020.1 - 0.0
18/01:00pm 21.9 16.9 -4.2 17 11.1 SSE 13 19 7 10 1020.5 1018.8 0.0
18/12:30pm 21.6 17.4 -3.7 18 10.9 SSE 9 20 5 11 1021.2 - 0.0
18/12:00pm 21.2 16.2 -4.0 18 10.7 E 13 22 7 12 1021.8 1020.1 0.0
18/11:30am 21.0 16.8 -3.5 19 10.5 E 9 20 5 11 1022.3 - 0.0
18/11:00am 20.1 14.0 -4.2 19 10.2 E 19 24 10 13 1023.0 1021.3 0.0
18/10:30am 20.0 15.1 -3.0 21 9.9 NE 13 22 7 12 1023.4 - 0.0
18/10:00am 19.1 13.4 -3.7 21 9.6 ENE 17 26 9 14 1023.7 1022.0 0.0
18/09:30am 18.6 12.9 -3.5 22 9.3 ENE 17 24 9 13 1023.9 - 0.0
18/09:00am 18.5 13.3 -2.4 24 8.9 ENE 15 20 8 11 1023.9 1022.2 0.0
18/08:30am 16.5 13.0 -2.5 27 8.0 SE 6 11 3 6 1023.8 - 0.0
18/08:00am 13.6 11.2 -2.8 32 6.6 CALM 0 0 0 0 1023.7 1022.0 0.0
18/07:30am 10.9 8.7 -1.8 41 5.1 CALM 0 0 0 0 1023.6 - 0.0
18/07:00am 7.7 5.4 -2.0 50 3.8 CALM 0 0 0 0 1023.3 1021.6 0.0
18/06:30am 6.6 4.3 -2.3 53 3.4 CALM 0 0 0 0 1022.9 - 0.0
18/06:00am 6.9 4.6 -2.5 51 3.6 CALM 0 0 0 0 1022.3 1020.6 0.0
18/05:30am 7.9 5.1 -3.0 46 4.1 SE 2 7 1 4 1022.0 - 0.0
18/05:00am 8.1 4.6 -3.1 45 4.2 SE 6 7 3 4 1021.8 1020.1 0.0
18/04:30am 7.8 5.1 -2.5 48 4.0 SE 2 7 1 4 1021.7 - 0.0
18/04:00am 7.2 4.9 -2.0 52 3.5 CALM 0 0 0 0 1021.6 1019.9 0.0
18/03:30am 8.8 6.4 -3.1 43 4.6 CALM 0 0 0 0 1021.6 - 0.0
18/03:00am 7.5 5.2 -2.0 51 3.7 CALM 0 0 0 0 1021.7 1020.0 0.0
18/02:30am 8.0 5.7 -2.3 48 4.0 CALM 0 0 0 0 1021.8 - 0.0
18/02:00am 8.9 6.5 -3.3 42 4.6 CALM 0 0 0 0 1021.9 1020.2 0.0
18/01:30am 9.7 7.3 -3.2 40 5.0 CALM 0 0 0 0 1022.1 - 0.0
18/01:00am 9.2 6.8 -3.0 42 4.7 CALM 0 0 0 0 1022.3 1020.6 0.0
18/12:30am 10.2 7.8 -3.5 38 5.3 CALM 0 0 0 0 1022.6 - 0.0
18/12:00am 10.1 7.7 -3.2 39 5.1 CALM 0 4 0 2 1022.6 1020.8 0.0
 
Date/Time
WST
Temp
°C
App
Temp
°C
Dew
Point
Rel
Hum
%
Delta-T
°C
Wind Press
QNH
hPa
Press
MSL
hPa
Rain
since 9 am
mm
Dir
 
Spd
km/h
Gust
km/h
Spd
kts
Gust
kts
17/11:30pm 13.6 9.1 -3.6 30 6.9 SE 11 13 6 7 1022.8 - 0.0
17/11:00pm 13.5 9.6 -4.2 29 6.9 E 7 9 4 5 1022.8 1021.0 0.0
17/10:30pm 14.6 10.7 -4.2 27 7.5 E 7 9 4 5 1022.8 - 0.0
17/10:00pm 14.9 10.6 -4.4 26 7.6 ENE 9 11 5 6 1022.8 1021.0 0.0
17/09:30pm 15.2 11.0 -4.2 26 7.8 E 9 11 5 6 1022.8 - 0.0
17/09:00pm 15.2 10.6 -4.2 26 7.7 ENE 11 11 6 6 1022.8 1021.0 0.0
17/08:30pm 15.3 11.5 -4.1 26 7.8 E 7 9 4 5 1022.8 - 0.0
17/08:00pm 15.9 12.0 -4.6 24 8.2 E 7 9 4 5 1022.6 1020.8 0.0
17/07:30pm 16.2 11.9 -4.9 23 8.4 E 9 11 5 6 1022.3 - 0.0
17/07:00pm 16.7 12.9 -5.1 22 8.7 E 6 7 3 4 1021.8 1020.1 0.0
17/06:30pm 17.4 13.5 -5.1 21 9.1 E 7 9 4 5 1021.4 - 0.0
17/06:00pm 18.5 14.5 -5.5 19 9.7 E 7 11 4 6 1021.1 1019.3 0.0
17/05:30pm 20.4 14.8 -6.2 16 10.8 E 15 20 8 11 1020.8 - 0.0
17/05:00pm 21.2 15.6 -6.4 15 11.2 ESE 15 24 8 13 1020.4 1018.7 0.0

Other Formats:

Comma delimited format used in spreadsheet applications
http://www.bom.gov.au/fwo/IDW60801/IDW60801.99313.axf

JavaScript Object Notation format (JSON) in row-major order
http://www.bom.gov.au/fwo/IDW60801/IDW60801.99313.json